sensor_id;sensor_type;location;lat;lon;timestamp;P1;durP1;ratioP1;P2;durP2;ratioP2
40116;SDS011;25829;50.228;18.936;2023-01-01T00:01:56;17.50;;;11.40;;
40116;SDS011;25829;50.228;18.936;2023-01-01T00:04:57;16.67;;;11.13;;
40116;SDS011;25829;50.228;18.936;2023-01-01T00:07:58;18.27;;;11.00;;
40116;SDS011;25829;50.228;18.936;2023-01-01T00:11:00;16.33;;;11.27;;
40116;SDS011;25829;50.228;18.936;2023-01-01T00:14:01;14.45;;;10.68;;
40116;SDS011;25829;50.228;18.936;2023-01-01T00:17:02;17.37;;;10.43;;
40116;SDS011;25829;50.228;18.936;2023-01-01T00:20:03;14.23;;;10.57;;
40116;SDS011;25829;50.228;18.936;2023-01-01T00:23:04;17.48;;;10.70;;
40116;SDS011;25829;50.228;18.936;2023-01-01T00:26:08;16.27;;;10.50;;
40116;SDS011;25829;50.228;18.936;2023-01-01T00:29:14;15.13;;;9.70;;
40116;SDS011;25829;50.228;18.936;2023-01-01T00:32:14;17.67;;;11.20;;
40116;SDS011;25829;50.228;18.936;2023-01-01T00:35:15;16.93;;;11.10;;
40116;SDS011;25829;50.228;18.936;2023-01-01T00:38:17;17.70;;;11.63;;
40116;SDS011;25829;50.228;18.936;2023-01-01T00:41:18;17.38;;;12.02;;
40116;SDS011;25829;50.228;18.936;2023-01-01T00:44:25;22.80;;;13.70;;
40116;SDS011;25829;50.228;18.936;2023-01-01T00:47:26;20.10;;;13.63;;
40116;SDS011;25829;50.228;18.936;2023-01-01T00:50:27;16.40;;;11.50;;
40116;SDS011;25829;50.228;18.936;2023-01-01T00:53:28;17.42;;;10.80;;
40116;SDS011;25829;50.228;18.936;2023-01-01T00:56:29;16.87;;;10.77;;
40116;SDS011;25829;50.228;18.936;2023-01-01T00:59:29;16.83;;;10.75;;
40116;SDS011;25829;50.228;18.936;2023-01-01T01:02:30;18.02;;;11.30;;
40116;SDS011;25829;50.228;18.936;2023-01-01T01:05:31;18.35;;;12.13;;
40116;SDS011;25829;50.228;18.936;2023-01-01T01:08:33;17.35;;;11.40;;
40116;SDS011;25829;50.228;18.936;2023-01-01T01:11:35;15.43;;;11.43;;
40116;SDS011;25829;50.228;18.936;2023-01-01T01:14:35;21.00;;;11.95;;
40116;SDS011;25829;50.228;18.936;2023-01-01T01:17:36;20.60;;;12.75;;
40116;SDS011;25829;50.228;18.936;2023-01-01T01:20:37;15.73;;;10.90;;
40116;SDS011;25829;50.228;18.936;2023-01-01T01:23:37;17.15;;;11.55;;
40116;SDS011;25829;50.228;18.936;2023-01-01T01:26:38;17.05;;;11.50;;
40116;SDS011;25829;50.228;18.936;2023-01-01T01:29:39;14.97;;;10.57;;
40116;SDS011;25829;50.228;18.936;2023-01-01T01:32:40;17.20;;;11.02;;
40116;SDS011;25829;50.228;18.936;2023-01-01T01:35:40;16.00;;;10.20;;
40116;SDS011;25829;50.228;18.936;2023-01-01T01:38:41;15.67;;;10.77;;
40116;SDS011;25829;50.228;18.936;2023-01-01T01:41:42;14.68;;;10.05;;
40116;SDS011;25829;50.228;18.936;2023-01-01T01:47:57;15.77;;;10.23;;
40116;SDS011;25829;50.228;18.936;2023-01-01T01:50:58;16.20;;;10.55;;
40116;SDS011;25829;50.228;18.936;2023-01-01T01:54:01;15.10;;;9.97;;
40116;SDS011;25829;50.228;18.936;2023-01-01T01:57:05;16.50;;;9.77;;
40116;SDS011;25829;50.228;18.936;2023-01-01T02:00:08;14.05;;;9.75;;
40116;SDS011;25829;50.228;18.936;2023-01-01T02:03:13;13.52;;;9.60;;
40116;SDS011;25829;50.228;18.936;2023-01-01T02:06:19;16.00;;;10.48;;
40116;SDS011;25829;50.228;18.936;2023-01-01T02:09:20;15.70;;;10.23;;
40116;SDS011;25829;50.228;18.936;2023-01-01T02:12:21;15.43;;;9.50;;
40116;SDS011;25829;50.228;18.936;2023-01-01T02:15:22;18.13;;;9.63;;
40116;SDS011;25829;50.228;18.936;2023-01-01T02:18:39;18.88;;;11.95;;
40116;SDS011;25829;50.228;18.936;2023-01-01T02:25:11;13.75;;;8.93;;
40116;SDS011;25829;50.228;18.936;2023-01-01T02:28:38;14.13;;;9.63;;
40116;SDS011;25829;50.228;18.936;2023-01-01T02:32:12;11.90;;;8.43;;
40116;SDS011;25829;50.228;18.936;2023-01-01T02:35:24;12.07;;;8.27;;
40116;SDS011;25829;50.228;18.936;2023-01-01T02:38:36;12.60;;;8.90;;
40116;SDS011;25829;50.228;18.936;2023-01-01T02:41:44;15.10;;;10.53;;
40116;SDS011;25829;50.228;18.936;2023-01-01T02:44:48;17.30;;;10.67;;
40116;SDS011;25829;50.228;18.936;2023-01-01T02:47:52;18.20;;;11.37;;
40116;SDS011;25829;50.228;18.936;2023-01-01T02:50:54;22.03;;;13.67;;
40116;SDS011;25829;50.228;18.936;2023-01-01T03:00:34;16.70;;;10.63;;
40116;SDS011;25829;50.228;18.936;2023-01-01T03:03:43;17.43;;;10.73;;
40116;SDS011;25829;50.228;18.936;2023-01-01T03:10:18;16.20;;;11.03;;
40116;SDS011;25829;50.228;18.936;2023-01-01T03:16:38;15.27;;;10.23;;
40116;SDS011;25829;50.228;18.936;2023-01-01T03:19:46;17.20;;;11.77;;
40116;SDS011;25829;50.228;18.936;2023-01-01T03:22:50;17.20;;;11.67;;
40116;SDS011;25829;50.228;18.936;2023-01-01T03:25:56;21.37;;;11.50;;
40116;SDS011;25829;50.228;18.936;2023-01-01T03:29:02;15.40;;;10.90;;
40116;SDS011;25829;50.228;18.936;2023-01-01T03:32:05;15.53;;;10.60;;
40116;SDS011;25829;50.228;18.936;2023-01-01T03:35:10;15.23;;;10.53;;
40116;SDS011;25829;50.228;18.936;2023-01-01T03:38:21;14.50;;;10.50;;
40116;SDS011;25829;50.228;18.936;2023-01-01T03:41:31;12.93;;;10.13;;
40116;SDS011;25829;50.228;18.936;2023-01-01T03:45:00;14.53;;;10.87;;
40116;SDS011;25829;50.228;18.936;2023-01-01T03:48:09;14.83;;;10.43;;
40116;SDS011;25829;50.228;18.936;2023-01-01T03:51:14;13.80;;;10.47;;
40116;SDS011;25829;50.228;18.936;2023-01-01T04:01:01;27.30;;;15.60;;
40116;SDS011;25829;50.228;18.936;2023-01-01T04:04:06;28.70;;;16.57;;
40116;SDS011;25829;50.228;18.936;2023-01-01T04:07:07;24.83;;;15.00;;
40116;SDS011;25829;50.228;18.936;2023-01-01T04:10:08;20.53;;;13.80;;
40116;SDS011;25829;50.228;18.936;2023-01-01T04:13:18;18.60;;;13.10;;
40116;SDS011;25829;50.228;18.936;2023-01-01T04:16:18;18.93;;;13.07;;
40116;SDS011;25829;50.228;18.936;2023-01-01T04:19:19;20.57;;;15.20;;
40116;SDS011;25829;50.228;18.936;2023-01-01T04:22:20;20.10;;;14.03;;
40116;SDS011;25829;50.228;18.936;2023-01-01T04:25:22;22.37;;;15.23;;
40116;SDS011;25829;50.228;18.936;2023-01-01T04:28:23;23.00;;;15.63;;
40116;SDS011;25829;50.228;18.936;2023-01-01T04:31:23;24.43;;;16.00;;
40116;SDS011;25829;50.228;18.936;2023-01-01T04:34:24;26.67;;;15.60;;
40116;SDS011;25829;50.228;18.936;2023-01-01T04:37:25;20.37;;;14.00;;
40116;SDS011;25829;50.228;18.936;2023-01-01T04:40:26;21.87;;;14.03;;
40116;SDS011;25829;50.228;18.936;2023-01-01T04:43:27;21.33;;;13.20;;
40116;SDS011;25829;50.228;18.936;2023-01-01T04:46:28;20.63;;;13.77;;
40116;SDS011;25829;50.228;18.936;2023-01-01T04:49:28;22.37;;;14.00;;
40116;SDS011;25829;50.228;18.936;2023-01-01T04:52:29;24.97;;;15.17;;
40116;SDS011;25829;50.228;18.936;2023-01-01T04:55:30;33.60;;;18.67;;
40116;SDS011;25829;50.228;18.936;2023-01-01T04:58:33;28.67;;;16.27;;
40116;SDS011;25829;50.228;18.936;2023-01-01T05:01:35;21.30;;;13.40;;
40116;SDS011;25829;50.228;18.936;2023-01-01T05:04:36;23.13;;;13.50;;
40116;SDS011;25829;50.228;18.936;2023-01-01T05:07:36;24.20;;;14.47;;
40116;SDS011;25829;50.228;18.936;2023-01-01T05:10:37;32.53;;;17.43;;
40116;SDS011;25829;50.228;18.936;2023-01-01T05:13:39;29.30;;;16.10;;
40116;SDS011;25829;50.228;18.936;2023-01-01T05:16:41;36.10;;;20.10;;
40116;SDS011;25829;50.228;18.936;2023-01-01T05:19:41;31.97;;;17.20;;
40116;SDS011;25829;50.228;18.936;2023-01-01T05:22:44;27.13;;;15.60;;
40116;SDS011;25829;50.228;18.936;2023-01-01T05:25:45;25.60;;;13.77;;
40116;SDS011;25829;50.228;18.936;2023-01-01T05:28:46;21.67;;;12.23;;
40116;SDS011;25829;50.228;18.936;2023-01-01T05:31:47;26.37;;;13.60;;
40116;SDS011;25829;50.228;18.936;2023-01-01T05:34:48;22.37;;;12.80;;
40116;SDS011;25829;50.228;18.936;2023-01-01T05:37:48;20.37;;;11.37;;
40116;SDS011;25829;50.228;18.936;2023-01-01T05:40:51;15.13;;;8.43;;
40116;SDS011;25829;50.228;18.936;2023-01-01T05:43:54;12.70;;;8.53;;
40116;SDS011;25829;50.228;18.936;2023-01-01T05:46:55;16.03;;;8.80;;
40116;SDS011;25829;50.228;18.936;2023-01-01T05:49:56;14.93;;;8.57;;
40116;SDS011;25829;50.228;18.936;2023-01-01T05:52:56;14.53;;;9.13;;
40116;SDS011;25829;50.228;18.936;2023-01-01T05:55:58;13.50;;;8.53;;
40116;SDS011;25829;50.228;18.936;2023-01-01T05:58:59;10.07;;;6.13;;
40116;SDS011;25829;50.228;18.936;2023-01-01T06:02:00;7.20;;;5.20;;
40116;SDS011;25829;50.228;18.936;2023-01-01T06:05:00;7.77;;;5.63;;
40116;SDS011;25829;50.228;18.936;2023-01-01T06:08:01;5.70;;;4.73;;
40116;SDS011;25829;50.228;18.936;2023-01-01T06:11:03;5.33;;;4.00;;
40116;SDS011;25829;50.228;18.936;2023-01-01T06:14:05;6.73;;;4.00;;
40116;SDS011;25829;50.228;18.936;2023-01-01T06:17:05;5.13;;;3.87;;
40116;SDS011;25829;50.228;18.936;2023-01-01T06:20:06;4.97;;;4.30;;
40116;SDS011;25829;50.228;18.936;2023-01-01T06:23:07;6.63;;;3.93;;
40116;SDS011;25829;50.228;18.936;2023-01-01T06:26:41;6.47;;;3.88;;
40116;SDS011;25829;50.228;18.936;2023-01-01T06:29:35;4.07;;;3.53;;
40116;SDS011;25829;50.228;18.936;2023-01-01T06:32:36;4.63;;;3.77;;
40116;SDS011;25829;50.228;18.936;2023-01-01T06:35:36;5.53;;;3.77;;
40116;SDS011;25829;50.228;18.936;2023-01-01T06:38:38;5.13;;;3.83;;
40116;SDS011;25829;50.228;18.936;2023-01-01T06:41:41;6.57;;;3.80;;
40116;SDS011;25829;50.228;18.936;2023-01-01T06:44:42;4.13;;;3.73;;
40116;SDS011;25829;50.228;18.936;2023-01-01T06:47:42;6.43;;;4.00;;
40116;SDS011;25829;50.228;18.936;2023-01-01T06:50:43;5.97;;;4.63;;
40116;SDS011;25829;50.228;18.936;2023-01-01T06:53:44;5.18;;;4.07;;
40116;SDS011;25829;50.228;18.936;2023-01-01T06:56:45;5.22;;;4.35;;
40116;SDS011;25829;50.228;18.936;2023-01-01T06:59:46;5.63;;;4.25;;
40116;SDS011;25829;50.228;18.936;2023-01-01T07:02:47;5.25;;;4.18;;
40116;SDS011;25829;50.228;18.936;2023-01-01T07:05:47;5.93;;;4.45;;
40116;SDS011;25829;50.228;18.936;2023-01-01T07:08:48;6.90;;;4.63;;
40116;SDS011;25829;50.228;18.936;2023-01-01T07:11:49;6.03;;;4.50;;
40116;SDS011;25829;50.228;18.936;2023-01-01T07:14:50;5.93;;;4.35;;
40116;SDS011;25829;50.228;18.936;2023-01-01T07:17:51;7.77;;;4.60;;
40116;SDS011;25829;50.228;18.936;2023-01-01T07:20:55;6.75;;;4.43;;
40116;SDS011;25829;50.228;18.936;2023-01-01T07:24:02;6.32;;;4.32;;
40116;SDS011;25829;50.228;18.936;2023-01-01T07:27:04;5.90;;;4.22;;
40116;SDS011;25829;50.228;18.936;2023-01-01T07:30:11;8.20;;;5.20;;
40116;SDS011;25829;50.228;18.936;2023-01-01T07:33:16;7.65;;;5.13;;
40116;SDS011;25829;50.228;18.936;2023-01-01T07:36:26;6.75;;;5.38;;
40116;SDS011;25829;50.228;18.936;2023-01-01T07:39:26;7.82;;;5.13;;
40116;SDS011;25829;50.228;18.936;2023-01-01T07:42:27;7.28;;;4.97;;
40116;SDS011;25829;50.228;18.936;2023-01-01T07:45:28;8.25;;;5.50;;
40116;SDS011;25829;50.228;18.936;2023-01-01T07:48:29;7.47;;;4.97;;
40116;SDS011;25829;50.228;18.936;2023-01-01T07:51:30;8.88;;;5.40;;
40116;SDS011;25829;50.228;18.936;2023-01-01T07:54:34;9.52;;;5.53;;
40116;SDS011;25829;50.228;18.936;2023-01-01T07:57:38;7.88;;;5.10;;
40116;SDS011;25829;50.228;18.936;2023-01-01T08:00:46;7.82;;;5.40;;
40116;SDS011;25829;50.228;18.936;2023-01-01T08:03:51;7.25;;;5.25;;
40116;SDS011;25829;50.228;18.936;2023-01-01T08:06:52;8.18;;;5.32;;
40116;SDS011;25829;50.228;18.936;2023-01-01T08:09:53;8.82;;;5.22;;
40116;SDS011;25829;50.228;18.936;2023-01-01T08:13:04;7.95;;;5.22;;
40116;SDS011;25829;50.228;18.936;2023-01-01T08:16:07;7.82;;;5.50;;
40116;SDS011;25829;50.228;18.936;2023-01-01T08:19:08;7.45;;;5.40;;
40116;SDS011;25829;50.228;18.936;2023-01-01T08:22:08;7.10;;;5.40;;
40116;SDS011;25829;50.228;18.936;2023-01-01T08:25:10;8.32;;;5.68;;
40116;SDS011;25829;50.228;18.936;2023-01-01T08:28:11;7.75;;;5.70;;
40116;SDS011;25829;50.228;18.936;2023-01-01T08:31:11;7.40;;;5.78;;
40116;SDS011;25829;50.228;18.936;2023-01-01T08:34:12;6.25;;;4.80;;
40116;SDS011;25829;50.228;18.936;2023-01-01T08:37:13;6.45;;;4.75;;
40116;SDS011;25829;50.228;18.936;2023-01-01T08:40:14;7.40;;;5.45;;
40116;SDS011;25829;50.228;18.936;2023-01-01T08:43:15;7.80;;;5.95;;
40116;SDS011;25829;50.228;18.936;2023-01-01T08:46:15;8.63;;;6.35;;
40116;SDS011;25829;50.228;18.936;2023-01-01T08:49:16;9.15;;;5.65;;
40116;SDS011;25829;50.228;18.936;2023-01-01T08:52:20;7.00;;;5.95;;
40116;SDS011;25829;50.228;18.936;2023-01-01T08:55:20;8.90;;;5.18;;
40116;SDS011;25829;50.228;18.936;2023-01-01T08:58:21;10.82;;;6.43;;
40116;SDS011;25829;50.228;18.936;2023-01-01T09:01:22;6.60;;;4.70;;
40116;SDS011;25829;50.228;18.936;2023-01-01T09:04:25;5.97;;;4.05;;
40116;SDS011;25829;50.228;18.936;2023-01-01T09:07:26;5.63;;;4.60;;
40116;SDS011;25829;50.228;18.936;2023-01-01T09:10:36;7.57;;;4.53;;
40116;SDS011;25829;50.228;18.936;2023-01-01T09:13:39;5.40;;;4.20;;
40116;SDS011;25829;50.228;18.936;2023-01-01T09:16:43;5.30;;;4.15;;
40116;SDS011;25829;50.228;18.936;2023-01-01T09:19:44;5.90;;;4.13;;
40116;SDS011;25829;50.228;18.936;2023-01-01T09:22:57;6.10;;;4.45;;
40116;SDS011;25829;50.228;18.936;2023-01-01T09:26:13;6.78;;;5.15;;
40116;SDS011;25829;50.228;18.936;2023-01-01T09:29:17;6.55;;;4.60;;
40116;SDS011;25829;50.228;18.936;2023-01-01T09:32:28;7.30;;;4.95;;
40116;SDS011;25829;50.228;18.936;2023-01-01T09:35:29;5.22;;;3.85;;
40116;SDS011;25829;50.228;18.936;2023-01-01T09:38:30;6.68;;;4.80;;
40116;SDS011;25829;50.228;18.936;2023-01-01T09:48:24;6.50;;;4.22;;
40116;SDS011;25829;50.228;18.936;2023-01-01T09:51:32;6.88;;;4.80;;
40116;SDS011;25829;50.228;18.936;2023-01-01T09:57:55;5.28;;;4.38;;
40116;SDS011;25829;50.228;18.936;2023-01-01T10:00:58;6.72;;;4.25;;
40116;SDS011;25829;50.228;18.936;2023-01-01T10:04:16;6.55;;;3.85;;
40116;SDS011;25829;50.228;18.936;2023-01-01T10:07:55;6.18;;;4.82;;
40116;SDS011;25829;50.228;18.936;2023-01-01T10:11:19;6.18;;;4.35;;
40116;SDS011;25829;50.228;18.936;2023-01-01T10:14:29;7.13;;;4.00;;
40116;SDS011;25829;50.228;18.936;2023-01-01T10:17:37;5.68;;;4.53;;
40116;SDS011;25829;50.228;18.936;2023-01-01T10:20:43;6.35;;;4.68;;
40116;SDS011;25829;50.228;18.936;2023-01-01T10:24:14;5.75;;;4.50;;
40116;SDS011;25829;50.228;18.936;2023-01-01T10:27:58;5.38;;;4.18;;
40116;SDS011;25829;50.228;18.936;2023-01-01T10:31:14;6.22;;;4.53;;
40116;SDS011;25829;50.228;18.936;2023-01-01T10:34:22;4.60;;;4.10;;
40116;SDS011;25829;50.228;18.936;2023-01-01T10:37:34;6.47;;;4.30;;
40116;SDS011;25829;50.228;18.936;2023-01-01T10:43:54;6.95;;;4.22;;
40116;SDS011;25829;50.228;18.936;2023-01-01T10:46:56;5.15;;;3.97;;
40116;SDS011;25829;50.228;18.936;2023-01-01T10:49:59;6.88;;;4.10;;
40116;SDS011;25829;50.228;18.936;2023-01-01T10:53:17;4.78;;;3.60;;
40116;SDS011;25829;50.228;18.936;2023-01-01T10:56:45;5.20;;;3.80;;
40116;SDS011;25829;50.228;18.936;2023-01-01T10:59:46;5.32;;;3.60;;
40116;SDS011;25829;50.228;18.936;2023-01-01T11:02:48;5.38;;;3.90;;
40116;SDS011;25829;50.228;18.936;2023-01-01T11:09:40;5.50;;;4.20;;
40116;SDS011;25829;50.228;18.936;2023-01-01T11:12:42;7.82;;;4.68;;
40116;SDS011;25829;50.228;18.936;2023-01-01T11:15:43;8.95;;;4.95;;
40116;SDS011;25829;50.228;18.936;2023-01-01T11:18:44;6.78;;;4.68;;
40116;SDS011;25829;50.228;18.936;2023-01-01T11:21:45;7.13;;;4.55;;
40116;SDS011;25829;50.228;18.936;2023-01-01T11:24:58;4.90;;;3.72;;
40116;SDS011;25829;50.228;18.936;2023-01-01T11:31:16;5.10;;;3.58;;
40116;SDS011;25829;50.228;18.936;2023-01-01T11:37:29;5.78;;;4.03;;
40116;SDS011;25829;50.228;18.936;2023-01-01T11:40:36;4.90;;;3.90;;
40116;SDS011;25829;50.228;18.936;2023-01-01T11:43:44;6.00;;;3.70;;
40116;SDS011;25829;50.228;18.936;2023-01-01T11:46:46;6.07;;;4.13;;
40116;SDS011;25829;50.228;18.936;2023-01-01T11:49:52;5.30;;;3.58;;
40116;SDS011;25829;50.228;18.936;2023-01-01T11:52:56;7.43;;;4.25;;
40116;SDS011;25829;50.228;18.936;2023-01-01T11:56:20;5.13;;;3.75;;
40116;SDS011;25829;50.228;18.936;2023-01-01T11:59:38;7.43;;;3.97;;
40116;SDS011;25829;50.228;18.936;2023-01-01T12:07:06;5.55;;;3.65;;
40116;SDS011;25829;50.228;18.936;2023-01-01T12:10:20;5.07;;;3.58;;
40116;SDS011;25829;50.228;18.936;2023-01-01T12:13:31;4.90;;;3.63;;
40116;SDS011;25829;50.228;18.936;2023-01-01T12:20:31;5.90;;;4.40;;
40116;SDS011;25829;50.228;18.936;2023-01-01T12:23:38;5.88;;;4.13;;
40116;SDS011;25829;50.228;18.936;2023-01-01T12:30:05;6.32;;;4.00;;
40116;SDS011;25829;50.228;18.936;2023-01-01T12:33:21;7.80;;;4.50;;
40116;SDS011;25829;50.228;18.936;2023-01-01T12:39:45;6.75;;;4.15;;
40116;SDS011;25829;50.228;18.936;2023-01-01T12:43:07;6.47;;;4.28;;
40116;SDS011;25829;50.228;18.936;2023-01-01T12:46:23;6.05;;;4.20;;
40116;SDS011;25829;50.228;18.936;2023-01-01T12:49:48;8.50;;;4.45;;
40116;SDS011;25829;50.228;18.936;2023-01-01T12:56:22;5.75;;;4.55;;
40116;SDS011;25829;50.228;18.936;2023-01-01T12:59:31;7.85;;;5.05;;
40116;SDS011;25829;50.228;18.936;2023-01-01T13:03:05;7.35;;;5.00;;
40116;SDS011;25829;50.228;18.936;2023-01-01T13:10:42;5.88;;;4.15;;
40116;SDS011;25829;50.228;18.936;2023-01-01T13:14:08;7.70;;;4.32;;
40116;SDS011;25829;50.228;18.936;2023-01-01T13:21:20;7.30;;;4.22;;
40116;SDS011;25829;50.228;18.936;2023-01-01T13:24:45;7.32;;;4.25;;
40116;SDS011;25829;50.228;18.936;2023-01-01T13:28:12;4.68;;;3.88;;
40116;SDS011;25829;50.228;18.936;2023-01-01T13:31:14;4.32;;;3.72;;
40116;SDS011;25829;50.228;18.936;2023-01-01T13:37:39;4.57;;;3.63;;
40116;SDS011;25829;50.228;18.936;2023-01-01T13:44:44;4.65;;;4.05;;
40116;SDS011;25829;50.228;18.936;2023-01-01T14:01:39;10.23;;;5.55;;
40116;SDS011;25829;50.228;18.936;2023-01-01T14:08:59;10.27;;;6.43;;
40116;SDS011;25829;50.228;18.936;2023-01-01T14:12:14;12.57;;;7.45;;
40116;SDS011;25829;50.228;18.936;2023-01-01T14:19:15;8.88;;;6.07;;
40116;SDS011;25829;50.228;18.936;2023-01-01T14:22:29;8.32;;;5.45;;
40116;SDS011;25829;50.228;18.936;2023-01-01T14:29:42;10.38;;;6.80;;
40116;SDS011;25829;50.228;18.936;2023-01-01T14:33:37;10.98;;;6.40;;
40116;SDS011;25829;50.228;18.936;2023-01-01T14:36:47;11.15;;;7.10;;
40116;SDS011;25829;50.228;18.936;2023-01-01T14:40:36;12.88;;;7.70;;
40116;SDS011;25829;50.228;18.936;2023-01-01T14:44:20;14.32;;;7.45;;
40116;SDS011;25829;50.228;18.936;2023-01-01T14:48:18;13.02;;;7.65;;
40116;SDS011;25829;50.228;18.936;2023-01-01T14:51:28;14.55;;;7.68;;
40116;SDS011;25829;50.228;18.936;2023-01-01T14:54:35;9.68;;;6.50;;
40116;SDS011;25829;50.228;18.936;2023-01-01T14:57:38;8.82;;;5.50;;
40116;SDS011;25829;50.228;18.936;2023-01-01T15:00:39;9.15;;;5.70;;
40116;SDS011;25829;50.228;18.936;2023-01-01T15:03:40;10.18;;;5.78;;
40116;SDS011;25829;50.228;18.936;2023-01-01T15:06:40;10.52;;;6.47;;
40116;SDS011;25829;50.228;18.936;2023-01-01T15:13:36;11.25;;;7.18;;
40116;SDS011;25829;50.228;18.936;2023-01-01T15:20:19;14.35;;;6.80;;
40116;SDS011;25829;50.228;18.936;2023-01-01T15:23:20;14.68;;;8.27;;
40116;SDS011;25829;50.228;18.936;2023-01-01T15:33:35;13.77;;;7.72;;
40116;SDS011;25829;50.228;18.936;2023-01-01T15:51:14;7.63;;;5.53;;
40116;SDS011;25829;50.228;18.936;2023-01-01T15:54:26;9.15;;;5.30;;
40116;SDS011;25829;50.228;18.936;2023-01-01T15:57:27;9.07;;;6.00;;
40116;SDS011;25829;50.228;18.936;2023-01-01T16:00:29;8.60;;;5.90;;
40116;SDS011;25829;50.228;18.936;2023-01-01T16:03:32;9.82;;;6.72;;
40116;SDS011;25829;50.228;18.936;2023-01-01T16:06:46;9.82;;;6.32;;
40116;SDS011;25829;50.228;18.936;2023-01-01T16:22:09;11.65;;;6.93;;
40116;SDS011;25829;50.228;18.936;2023-01-01T16:25:51;7.70;;;6.05;;
40116;SDS011;25829;50.228;18.936;2023-01-01T17:18:11;12.88;;;8.73;;
40116;SDS011;25829;50.228;18.936;2023-01-01T17:21:11;12.13;;;8.65;;
40116;SDS011;25829;50.228;18.936;2023-01-01T17:27:38;10.43;;;8.25;;
40116;SDS011;25829;50.228;18.936;2023-01-01T17:30:42;14.70;;;9.05;;
40116;SDS011;25829;50.228;18.936;2023-01-01T17:33:53;14.65;;;8.98;;
40116;SDS011;25829;50.228;18.936;2023-01-01T17:40:45;19.15;;;13.15;;
40116;SDS011;25829;50.228;18.936;2023-01-01T17:47:24;73.53;;;48.70;;
40116;SDS011;25829;50.228;18.936;2023-01-01T17:50:25;42.28;;;30.60;;
40116;SDS011;25829;50.228;18.936;2023-01-01T17:58:13;33.40;;;20.42;;
40116;SDS011;25829;50.228;18.936;2023-01-01T18:04:34;33.55;;;21.40;;
40116;SDS011;25829;50.228;18.936;2023-01-01T18:07:46;33.75;;;21.77;;
40116;SDS011;25829;50.228;18.936;2023-01-01T18:10:55;26.27;;;17.38;;
40116;SDS011;25829;50.228;18.936;2023-01-01T18:13:57;24.80;;;16.20;;
40116;SDS011;25829;50.228;18.936;2023-01-01T18:23:36;22.88;;;12.82;;
40116;SDS011;25829;50.228;18.936;2023-01-01T18:26:38;15.18;;;9.98;;
40116;SDS011;25829;50.228;18.936;2023-01-01T18:29:39;20.47;;;12.20;;
40116;SDS011;25829;50.228;18.936;2023-01-01T18:32:39;19.33;;;12.67;;
40116;SDS011;25829;50.228;18.936;2023-01-01T18:35:40;19.53;;;12.70;;
40116;SDS011;25829;50.228;18.936;2023-01-01T18:38:42;16.20;;;11.43;;
40116;SDS011;25829;50.228;18.936;2023-01-01T18:45:28;21.57;;;12.53;;
40116;SDS011;25829;50.228;18.936;2023-01-01T18:48:28;24.83;;;14.13;;
40116;SDS011;25829;50.228;18.936;2023-01-01T18:51:29;23.10;;;13.80;;
40116;SDS011;25829;50.228;18.936;2023-01-01T18:54:30;23.13;;;13.83;;
40116;SDS011;25829;50.228;18.936;2023-01-01T18:57:31;24.17;;;14.57;;
40116;SDS011;25829;50.228;18.936;2023-01-01T19:00:32;28.73;;;15.97;;
40116;SDS011;25829;50.228;18.936;2023-01-01T19:03:35;23.93;;;16.10;;
40116;SDS011;25829;50.228;18.936;2023-01-01T19:06:39;23.80;;;14.87;;
40116;SDS011;25829;50.228;18.936;2023-01-01T19:09:41;21.17;;;14.13;;
40116;SDS011;25829;50.228;18.936;2023-01-01T19:12:41;25.90;;;15.27;;
40116;SDS011;25829;50.228;18.936;2023-01-01T19:15:43;21.80;;;14.67;;
40116;SDS011;25829;50.228;18.936;2023-01-01T19:18:45;25.73;;;16.20;;
40116;SDS011;25829;50.228;18.936;2023-01-01T19:21:47;28.17;;;16.17;;
40116;SDS011;25829;50.228;18.936;2023-01-01T19:24:51;31.37;;;17.03;;
40116;SDS011;25829;50.228;18.936;2023-01-01T19:27:52;31.83;;;17.70;;
40116;SDS011;25829;50.228;18.936;2023-01-01T19:30:53;33.10;;;19.03;;
40116;SDS011;25829;50.228;18.936;2023-01-01T19:33:54;32.63;;;18.07;;
40116;SDS011;25829;50.228;18.936;2023-01-01T19:36:54;31.37;;;16.73;;
40116;SDS011;25829;50.228;18.936;2023-01-01T19:39:55;26.53;;;15.23;;
40116;SDS011;25829;50.228;18.936;2023-01-01T19:42:56;24.40;;;14.10;;
40116;SDS011;25829;50.228;18.936;2023-01-01T19:45:58;25.37;;;14.73;;
40116;SDS011;25829;50.228;18.936;2023-01-01T19:48:59;42.50;;;23.83;;
40116;SDS011;25829;50.228;18.936;2023-01-01T19:52:00;28.30;;;17.87;;
40116;SDS011;25829;50.228;18.936;2023-01-01T20:11:07;23.47;;;14.67;;
40116;SDS011;25829;50.228;18.936;2023-01-01T20:14:07;20.90;;;13.43;;
40116;SDS011;25829;50.228;18.936;2023-01-01T20:17:08;23.30;;;14.03;;
40116;SDS011;25829;50.228;18.936;2023-01-01T20:20:09;21.87;;;13.93;;
40116;SDS011;25829;50.228;18.936;2023-01-01T20:23:10;18.43;;;12.60;;
40116;SDS011;25829;50.228;18.936;2023-01-01T20:26:14;19.37;;;12.23;;
40116;SDS011;25829;50.228;18.936;2023-01-01T20:29:15;20.50;;;13.43;;
40116;SDS011;25829;50.228;18.936;2023-01-01T20:32:25;17.23;;;10.93;;
40116;SDS011;25829;50.228;18.936;2023-01-01T20:35:26;14.17;;;10.67;;
40116;SDS011;25829;50.228;18.936;2023-01-01T20:38:45;19.13;;;11.37;;
40116;SDS011;25829;50.228;18.936;2023-01-01T20:41:49;18.10;;;11.00;;
40116;SDS011;25829;50.228;18.936;2023-01-01T20:44:51;20.43;;;12.50;;
40116;SDS011;25829;50.228;18.936;2023-01-01T20:47:52;17.00;;;9.90;;
40116;SDS011;25829;50.228;18.936;2023-01-01T20:50:52;16.07;;;10.90;;
40116;SDS011;25829;50.228;18.936;2023-01-01T20:53:53;19.40;;;10.93;;
40116;SDS011;25829;50.228;18.936;2023-01-01T20:56:55;14.80;;;10.27;;
40116;SDS011;25829;50.228;18.936;2023-01-01T20:59:56;16.40;;;10.97;;
40116;SDS011;25829;50.228;18.936;2023-01-01T21:02:57;15.30;;;9.60;;
40116;SDS011;25829;50.228;18.936;2023-01-01T21:06:00;14.57;;;9.10;;
40116;SDS011;25829;50.228;18.936;2023-01-01T21:09:01;12.67;;;8.67;;
40116;SDS011;25829;50.228;18.936;2023-01-01T21:12:05;18.30;;;11.27;;
40116;SDS011;25829;50.228;18.936;2023-01-01T21:15:09;20.07;;;11.17;;
40116;SDS011;25829;50.228;18.936;2023-01-01T21:18:23;23.60;;;12.10;;
40116;SDS011;25829;50.228;18.936;2023-01-01T21:21:25;23.73;;;12.80;;
40116;SDS011;25829;50.228;18.936;2023-01-01T21:24:34;25.20;;;13.17;;
40116;SDS011;25829;50.228;18.936;2023-01-01T21:27:36;22.80;;;14.00;;
40116;SDS011;25829;50.228;18.936;2023-01-01T21:30:39;27.60;;;14.03;;
40116;SDS011;25829;50.228;18.936;2023-01-01T21:33:46;20.17;;;12.60;;
40116;SDS011;25829;50.228;18.936;2023-01-01T21:36:47;23.30;;;13.07;;
40116;SDS011;25829;50.228;18.936;2023-01-01T21:39:47;18.47;;;12.07;;
40116;SDS011;25829;50.228;18.936;2023-01-01T21:46:37;27.83;;;15.77;;
40116;SDS011;25829;50.228;18.936;2023-01-01T21:49:43;24.10;;;14.63;;
40116;SDS011;25829;50.228;18.936;2023-01-01T21:52:44;21.83;;;14.87;;
40116;SDS011;25829;50.228;18.936;2023-01-01T21:55:49;24.93;;;15.37;;
40116;SDS011;25829;50.228;18.936;2023-01-01T21:58:58;28.17;;;15.90;;
40116;SDS011;25829;50.228;18.936;2023-01-01T22:05:36;22.70;;;14.80;;
40116;SDS011;25829;50.228;18.936;2023-01-01T22:08:37;31.77;;;17.90;;
40116;SDS011;25829;50.228;18.936;2023-01-01T22:11:45;24.87;;;14.90;;
40116;SDS011;25829;50.228;18.936;2023-01-01T22:21:11;26.80;;;15.13;;
40116;SDS011;25829;50.228;18.936;2023-01-01T22:33:38;25.93;;;14.47;;